sensor_id;sensor_type;location;lat;lon;timestamp;pressure;altitude;pressure_sealevel;temperature;humidity
20043;BME280;10182;52.896;6.496;2023-12-20T00:01:42;101246.53;;;5.08;100.00
20043;BME280;10182;52.896;6.496;2023-12-20T00:06:45;101246.50;;;5.11;100.00
20043;BME280;10182;52.896;6.496;2023-12-20T00:11:46;101226.41;;;5.07;100.00
20043;BME280;10182;52.896;6.496;2023-12-20T00:16:48;101225.69;;;5.00;100.00
20043;BME280;10182;52.896;6.496;2023-12-20T00:21:51;101231.84;;;4.98;100.00
20043;BME280;10182;52.896;6.496;2023-12-20T00:26:53;101227.63;;;4.87;100.00
20043;BME280;10182;52.896;6.496;2023-12-20T00:31:54;101222.41;;;4.84;100.00
20043;BME280;10182;52.896;6.496;2023-12-20T00:36:57;101219.13;;;4.70;100.00
20043;BME280;10182;52.896;6.496;2023-12-20T00:41:59;101226.03;;;4.75;100.00
20043;BME280;10182;52.896;6.496;2023-12-20T00:47:01;101227.88;;;4.70;100.00
20043;BME280;10182;52.896;6.496;2023-12-20T00:52:04;101214.78;;;4.69;100.00
20043;BME280;10182;52.896;6.496;2023-12-20T00:57:06;101215.47;;;4.80;100.00
20043;BME280;10182;52.896;6.496;2023-12-20T01:02:08;101209.28;;;4.84;100.00
20043;BME280;10182;52.896;6.496;2023-12-20T01:07:11;101205.69;;;4.90;100.00
20043;BME280;10182;52.896;6.496;2023-12-20T01:12:13;101202.22;;;4.88;100.00
20043;BME280;10182;52.896;6.496;2023-12-20T01:17:15;101203.09;;;4.88;100.00
20043;BME280;10182;52.896;6.496;2023-12-20T01:22:18;101196.09;;;4.89;100.00
20043;BME280;10182;52.896;6.496;2023-12-20T01:27:19;101199.75;;;4.79;100.00
20043;BME280;10182;52.896;6.496;2023-12-20T01:32:21;101199.66;;;4.85;100.00
20043;BME280;10182;52.896;6.496;2023-12-20T01:37:24;101176.94;;;4.82;100.00
20043;BME280;10182;52.896;6.496;2023-12-20T01:42:26;101176.03;;;4.85;100.00
20043;BME280;10182;52.896;6.496;2023-12-20T01:47:28;101171.78;;;4.76;100.00
20043;BME280;10182;52.896;6.496;2023-12-20T01:52:32;101175.31;;;4.75;100.00
20043;BME280;10182;52.896;6.496;2023-12-20T01:57:34;101168.19;;;4.82;100.00
20043;BME280;10182;52.896;6.496;2023-12-20T02:02:36;101172.41;;;4.94;100.00
20043;BME280;10182;52.896;6.496;2023-12-20T02:07:42;101168.72;;;5.04;100.00
20043;BME280;10182;52.896;6.496;2023-12-20T02:12:43;101168.56;;;5.13;100.00
20043;BME280;10182;52.896;6.496;2023-12-20T02:17:46;101163.97;;;5.24;100.00
20043;BME280;10182;52.896;6.496;2023-12-20T02:22:50;101152.38;;;5.36;100.00
20043;BME280;10182;52.896;6.496;2023-12-20T02:27:52;101152.31;;;5.39;100.00
20043;BME280;10182;52.896;6.496;2023-12-20T02:32:54;101157.59;;;5.39;100.00
20043;BME280;10182;52.896;6.496;2023-12-20T02:37:57;101150.66;;;5.35;100.00
20043;BME280;10182;52.896;6.496;2023-12-20T02:42:59;101149.06;;;5.27;100.00
20043;BME280;10182;52.896;6.496;2023-12-20T02:48:02;101132.44;;;5.28;100.00
20043;BME280;10182;52.896;6.496;2023-12-20T02:53:05;101136.78;;;5.27;100.00
20043;BME280;10182;52.896;6.496;2023-12-20T02:58:06;101130.53;;;5.34;100.00
20043;BME280;10182;52.896;6.496;2023-12-20T03:03:08;101120.91;;;5.35;100.00
20043;BME280;10182;52.896;6.496;2023-12-20T03:08:11;101121.75;;;5.35;100.00
20043;BME280;10182;52.896;6.496;2023-12-20T03:13:13;101107.75;;;5.35;100.00
20043;BME280;10182;52.896;6.496;2023-12-20T03:18:14;101109.66;;;5.27;100.00
20043;BME280;10182;52.896;6.496;2023-12-20T03:23:18;101118.47;;;5.24;100.00
20043;BME280;10182;52.896;6.496;2023-12-20T03:28:19;101115.75;;;5.29;100.00
20043;BME280;10182;52.896;6.496;2023-12-20T03:33:21;101104.25;;;5.36;100.00
20043;BME280;10182;52.896;6.496;2023-12-20T03:38:24;101091.78;;;5.46;100.00
20043;BME280;10182;52.896;6.496;2023-12-20T03:43:26;101083.69;;;5.55;100.00
20043;BME280;10182;52.896;6.496;2023-12-20T03:48:27;101077.53;;;5.57;100.00
20043;BME280;10182;52.896;6.496;2023-12-20T03:53:30;101080.06;;;5.62;100.00
20043;BME280;10182;52.896;6.496;2023-12-20T03:58:32;101092.25;;;5.66;100.00
20043;BME280;10182;52.896;6.496;2023-12-20T04:03:34;101092.31;;;5.62;100.00
20043;BME280;10182;52.896;6.496;2023-12-20T04:08:38;101081.81;;;5.62;100.00
20043;BME280;10182;52.896;6.496;2023-12-20T04:13:39;101065.94;;;5.68;100.00
20043;BME280;10182;52.896;6.496;2023-12-20T04:18:41;101069.31;;;5.74;100.00
20043;BME280;10182;52.896;6.496;2023-12-20T04:23:44;101056.22;;;5.70;100.00
20043;BME280;10182;52.896;6.496;2023-12-20T04:28:46;101050.84;;;5.76;100.00
20043;BME280;10182;52.896;6.496;2023-12-20T04:33:47;101047.31;;;5.79;100.00
20043;BME280;10182;52.896;6.496;2023-12-20T04:38:51;101029.75;;;5.79;100.00
20043;BME280;10182;52.896;6.496;2023-12-20T04:43:52;101045.56;;;5.78;100.00
20043;BME280;10182;52.896;6.496;2023-12-20T04:48:54;101045.59;;;5.76;100.00
20043;BME280;10182;52.896;6.496;2023-12-20T04:53:57;101044.56;;;5.83;100.00
20043;BME280;10182;52.896;6.496;2023-12-20T04:58:59;101039.25;;;5.85;100.00
20043;BME280;10182;52.896;6.496;2023-12-20T05:04:00;101037.41;;;5.90;100.00
20043;BME280;10182;52.896;6.496;2023-12-20T05:09:03;101043.31;;;6.01;100.00
20043;BME280;10182;52.896;6.496;2023-12-20T05:14:05;101043.31;;;6.03;100.00
20043;BME280;10182;52.896;6.496;2023-12-20T05:19:07;101037.91;;;6.07;100.00
20043;BME280;10182;52.896;6.496;2023-12-20T05:24:10;101036.88;;;6.15;100.00
20043;BME280;10182;52.896;6.496;2023-12-20T05:29:12;101031.53;;;6.18;100.00
20043;BME280;10182;52.896;6.496;2023-12-20T05:34:13;101033.19;;;6.22;100.00
20043;BME280;10182;52.896;6.496;2023-12-20T05:39:17;101031.28;;;6.29;100.00
20043;BME280;10182;52.896;6.496;2023-12-20T05:44:18;101024.25;;;6.29;100.00
20043;BME280;10182;52.896;6.496;2023-12-20T05:49:20;101025.91;;;6.33;100.00
20043;BME280;10182;52.896;6.496;2023-12-20T05:54:23;101020.56;;;6.36;100.00
20043;BME280;10182;52.896;6.496;2023-12-20T05:59:25;101003.00;;;6.38;100.00
20043;BME280;10182;52.896;6.496;2023-12-20T06:04:26;101009.91;;;6.42;100.00
20043;BME280;10182;52.896;6.496;2023-12-20T06:09:29;101009.03;;;6.42;100.00
20043;BME280;10182;52.896;6.496;2023-12-20T06:14:31;101002.00;;;6.42;100.00
20043;BME280;10182;52.896;6.496;2023-12-20T06:19:33;100993.25;;;6.42;100.00
20043;BME280;10182;52.896;6.496;2023-12-20T06:24:36;101008.94;;;6.47;100.00
20043;BME280;10182;52.896;6.496;2023-12-20T06:29:37;100983.41;;;6.49;100.00
20043;BME280;10182;52.896;6.496;2023-12-20T06:34:41;100992.06;;;6.54;100.00
20043;BME280;10182;52.896;6.496;2023-12-20T06:39:44;100994.56;;;6.58;100.00
20043;BME280;10182;52.896;6.496;2023-12-20T06:44:46;100989.16;;;6.65;100.00
20043;BME280;10182;52.896;6.496;2023-12-20T06:49:48;100990.09;;;6.62;100.00
20043;BME280;10182;52.896;6.496;2023-12-20T06:54:51;100983.94;;;6.63;100.00
20043;BME280;10182;52.896;6.496;2023-12-20T06:59:53;100984.69;;;6.67;100.00
20043;BME280;10182;52.896;6.496;2023-12-20T07:04:55;100964.53;;;6.67;100.00
20043;BME280;10182;52.896;6.496;2023-12-20T07:09:58;100968.09;;;6.65;100.00
20043;BME280;10182;52.896;6.496;2023-12-20T07:14:59;100958.19;;;6.74;100.00
20043;BME280;10182;52.896;6.496;2023-12-20T07:20:01;100940.56;;;6.76;100.00
20043;BME280;10182;52.896;6.496;2023-12-20T07:25:06;100945.00;;;6.74;100.00
20043;BME280;10182;52.896;6.496;2023-12-20T07:30:09;100948.28;;;6.83;100.00
20043;BME280;10182;52.896;6.496;2023-12-20T07:35:11;100961.56;;;6.80;100.00
20043;BME280;10182;52.896;6.496;2023-12-20T07:40:14;100963.50;;;6.73;100.00
20043;BME280;10182;52.896;6.496;2023-12-20T07:45:17;100965.19;;;6.75;100.00
20043;BME280;10182;52.896;6.496;2023-12-20T07:50:19;100962.41;;;6.80;100.00
20043;BME280;10182;52.896;6.496;2023-12-20T07:55:22;100965.00;;;6.82;100.00
20043;BME280;10182;52.896;6.496;2023-12-20T08:00:23;100964.84;;;6.88;100.00
20043;BME280;10182;52.896;6.496;2023-12-20T08:05:25;100965.69;;;6.88;100.00
20043;BME280;10182;52.896;6.496;2023-12-20T08:10:28;100969.88;;;6.95;100.00
20043;BME280;10182;52.896;6.496;2023-12-20T08:15:30;100973.38;;;6.96;100.00
20043;BME280;10182;52.896;6.496;2023-12-20T08:20:32;100978.47;;;7.02;100.00
20043;BME280;10182;52.896;6.496;2023-12-20T08:25:35;100973.09;;;7.07;100.00
20043;BME280;10182;52.896;6.496;2023-12-20T08:30:36;100968.59;;;7.10;100.00
20043;BME280;10182;52.896;6.496;2023-12-20T08:35:38;100965.88;;;7.14;100.00
20043;BME280;10182;52.896;6.496;2023-12-20T08:40:42;100962.47;;;7.10;100.00
20043;BME280;10182;52.896;6.496;2023-12-20T08:45:44;100953.72;;;7.09;100.00
20043;BME280;10182;52.896;6.496;2023-12-20T08:50:45;100964.94;;;7.15;100.00
20043;BME280;10182;52.896;6.496;2023-12-20T08:55:50;100967.47;;;7.19;100.00
20043;BME280;10182;52.896;6.496;2023-12-20T09:00:52;100972.53;;;7.25;100.00
20043;BME280;10182;52.896;6.496;2023-12-20T09:05:53;100971.66;;;7.26;100.00
20043;BME280;10182;52.896;6.496;2023-12-20T09:10:56;100969.59;;;7.36;100.00
20043;BME280;10182;52.896;6.496;2023-12-20T09:15:58;100967.00;;;7.35;100.00
20043;BME280;10182;52.896;6.496;2023-12-20T09:21:00;100964.56;;;7.28;100.00
20043;BME280;10182;52.896;6.496;2023-12-20T09:26:04;100978.50;;;7.32;100.00
20043;BME280;10182;52.896;6.496;2023-12-20T09:31:06;100972.06;;;7.42;100.00
20043;BME280;10182;52.896;6.496;2023-12-20T09:36:08;100965.41;;;7.59;100.00
20043;BME280;10182;52.896;6.496;2023-12-20T09:41:11;100970.50;;;7.35;100.00
20043;BME280;10182;52.896;6.496;2023-12-20T09:46:14;100991.56;;;6.72;100.00
20043;BME280;10182;52.896;6.496;2023-12-20T09:51:19;101047.47;;;6.12;100.00
20043;BME280;10182;52.896;6.496;2023-12-20T09:56:23;101079.28;;;6.01;100.00
20043;BME280;10182;52.896;6.496;2023-12-20T10:01:27;101091.00;;;5.84;100.00
20043;BME280;10182;52.896;6.496;2023-12-20T10:06:29;101080.03;;;5.64;100.00
20043;BME280;10182;52.896;6.496;2023-12-20T10:11:32;101066.25;;;5.52;100.00
20043;BME280;10182;52.896;6.496;2023-12-20T10:16:34;101065.19;;;5.61;100.00
20043;BME280;10182;52.896;6.496;2023-12-20T10:21:35;101069.59;;;5.61;100.00
20043;BME280;10182;52.896;6.496;2023-12-20T10:26:38;101052.78;;;5.68;100.00
20043;BME280;10182;52.896;6.496;2023-12-20T10:31:41;101058.81;;;5.73;100.00
20043;BME280;10182;52.896;6.496;2023-12-20T10:36:45;101057.84;;;5.77;100.00
20043;BME280;10182;52.896;6.496;2023-12-20T10:41:48;101043.72;;;5.83;100.00
20043;BME280;10182;52.896;6.496;2023-12-20T10:46:50;101034.94;;;5.84;100.00
20043;BME280;10182;52.896;6.496;2023-12-20T10:51:59;101030.56;;;5.83;100.00
20043;BME280;10182;52.896;6.496;2023-12-20T10:57:06;101027.72;;;5.92;100.00
20043;BME280;10182;52.896;6.496;2023-12-20T11:02:07;101018.78;;;6.01;100.00
20043;BME280;10182;52.896;6.496;2023-12-20T11:07:19;101019.56;;;6.06;100.00
20043;BME280;10182;52.896;6.496;2023-12-20T11:12:28;101021.13;;;6.13;100.00
20043;BME280;10182;52.896;6.496;2023-12-20T11:17:33;101017.94;;;6.36;100.00
20043;BME280;10182;52.896;6.496;2023-12-20T11:22:35;101002.16;;;6.36;100.00
20043;BME280;10182;52.896;6.496;2023-12-20T11:27:42;100996.09;;;6.34;100.00
20043;BME280;10182;52.896;6.496;2023-12-20T11:32:45;100996.88;;;6.36;100.00
20043;BME280;10182;52.896;6.496;2023-12-20T11:37:47;100996.00;;;6.37;100.00
20043;BME280;10182;52.896;6.496;2023-12-20T11:42:51;101002.00;;;6.42;100.00
20043;BME280;10182;52.896;6.496;2023-12-20T11:47:53;101007.34;;;6.39;100.00
20043;BME280;10182;52.896;6.496;2023-12-20T11:52:55;101005.50;;;6.43;100.00
20043;BME280;10182;52.896;6.496;2023-12-20T11:57:58;100998.41;;;6.47;100.00
20043;BME280;10182;52.896;6.496;2023-12-20T12:02:59;100989.59;;;6.48;100.00
20043;BME280;10182;52.896;6.496;2023-12-20T12:08:04;100981.63;;;6.51;100.00
20043;BME280;10182;52.896;6.496;2023-12-20T12:13:07;100959.59;;;6.55;100.00
20043;BME280;10182;52.896;6.496;2023-12-20T12:18:10;100964.16;;;6.48;100.00
20043;BME280;10182;52.896;6.496;2023-12-20T12:23:11;100963.13;;;6.54;100.00
20043;BME280;10182;52.896;6.496;2023-12-20T12:28:14;100960.63;;;6.48;100.00
20043;BME280;10182;52.896;6.496;2023-12-20T12:33:17;100962.50;;;6.44;100.00
20043;BME280;10182;52.896;6.496;2023-12-20T12:38:20;100940.75;;;6.37;100.00
20043;BME280;10182;52.896;6.496;2023-12-20T12:43:23;100943.19;;;6.43;100.00
20043;BME280;10182;52.896;6.496;2023-12-20T12:48:24;100944.19;;;6.39;100.00
20043;BME280;10182;52.896;6.496;2023-12-20T12:53:28;100954.09;;;6.30;100.00
20043;BME280;10182;52.896;6.496;2023-12-20T12:58:31;100960.22;;;6.30;100.00
20043;BME280;10182;52.896;6.496;2023-12-20T13:03:33;100955.22;;;6.19;100.00
20043;BME280;10182;52.896;6.496;2023-12-20T13:08:35;100960.84;;;6.04;100.00
20043;BME280;10182;52.896;6.496;2023-12-20T13:13:38;100949.78;;;5.89;100.00
20043;BME280;10182;52.896;6.496;2023-12-20T13:18:40;100925.25;;;5.89;100.00
20043;BME280;10182;52.896;6.496;2023-12-20T13:23:43;100935.88;;;5.84;100.00
20043;BME280;10182;52.896;6.496;2023-12-20T13:28:46;100934.19;;;5.82;100.00
20043;BME280;10182;52.896;6.496;2023-12-20T13:33:47;100943.88;;;5.80;100.00
20043;BME280;10182;52.896;6.496;2023-12-20T13:38:49;100933.47;;;5.75;100.00
20043;BME280;10182;52.896;6.496;2023-12-20T13:43:52;100938.88;;;5.69;100.00
20043;BME280;10182;52.896;6.496;2023-12-20T13:48:54;100932.78;;;5.67;100.00
20043;BME280;10182;52.896;6.496;2023-12-20T13:53:56;100930.06;;;5.70;100.00
20043;BME280;10182;52.896;6.496;2023-12-20T13:58:59;100919.69;;;5.65;100.00
20043;BME280;10182;52.896;6.496;2023-12-20T14:04:01;100935.56;;;5.59;100.00
20043;BME280;10182;52.896;6.496;2023-12-20T14:09:02;100906.66;;;5.61;100.00
20043;BME280;10182;52.896;6.496;2023-12-20T14:14:05;100905.00;;;5.55;100.00
20043;BME280;10182;52.896;6.496;2023-12-20T14:19:08;100918.94;;;5.58;100.00
20043;BME280;10182;52.896;6.496;2023-12-20T14:24:10;100904.16;;;5.54;100.00
20043;BME280;10182;52.896;6.496;2023-12-20T14:29:13;100898.03;;;5.54;100.00
20043;BME280;10182;52.896;6.496;2023-12-20T14:34:15;100900.50;;;5.60;100.00
20043;BME280;10182;52.896;6.496;2023-12-20T14:39:17;100911.09;;;5.57;100.00
20043;BME280;10182;52.896;6.496;2023-12-20T14:44:20;100910.09;;;5.63;100.00
20043;BME280;10182;52.896;6.496;2023-12-20T14:49:22;100904.00;;;5.62;100.00
20043;BME280;10182;52.896;6.496;2023-12-20T14:54:23;100893.50;;;5.61;100.00
20043;BME280;10182;52.896;6.496;2023-12-20T14:59:26;100899.63;;;5.61;100.00
20043;BME280;10182;52.896;6.496;2023-12-20T15:04:28;100880.38;;;5.61;100.00
20043;BME280;10182;52.896;6.496;2023-12-20T15:09:30;100882.16;;;5.58;100.00
20043;BME280;10182;52.896;6.496;2023-12-20T15:14:33;100875.22;;;5.56;100.00
20043;BME280;10182;52.896;6.496;2023-12-20T15:19:34;100877.75;;;5.59;100.00
20043;BME280;10182;52.896;6.496;2023-12-20T15:24:36;100861.06;;;5.62;100.00
20043;BME280;10182;52.896;6.496;2023-12-20T15:29:43;100873.25;;;5.64;100.00
20043;BME280;10182;52.896;6.496;2023-12-20T15:34:44;100874.03;;;5.69;100.00
20043;BME280;10182;52.896;6.496;2023-12-20T15:39:46;100866.91;;;5.74;100.00
20043;BME280;10182;52.896;6.496;2023-12-20T15:44:49;100868.34;;;5.86;100.00
20043;BME280;10182;52.896;6.496;2023-12-20T15:49:51;100868.06;;;5.97;100.00
20043;BME280;10182;52.896;6.496;2023-12-20T15:54:53;100853.81;;;6.07;100.00
20043;BME280;10182;52.896;6.496;2023-12-20T15:59:56;100843.03;;;6.18;100.00
20043;BME280;10182;52.896;6.496;2023-12-20T16:04:57;100836.72;;;6.24;100.00
20043;BME280;10182;52.896;6.496;2023-12-20T16:09:59;100830.28;;;6.36;100.00
20043;BME280;10182;52.896;6.496;2023-12-20T16:15:03;100827.59;;;6.37;100.00
20043;BME280;10182;52.896;6.496;2023-12-20T16:20:06;100816.88;;;6.43;100.00
20043;BME280;10182;52.896;6.496;2023-12-20T16:25:09;100809.81;;;6.46;100.00
20043;BME280;10182;52.896;6.496;2023-12-20T16:30:13;100797.41;;;6.51;100.00
20043;BME280;10182;52.896;6.496;2023-12-20T16:35:15;100780.78;;;6.49;100.00
20043;BME280;10182;52.896;6.496;2023-12-20T16:40:16;100775.34;;;6.55;100.00
20043;BME280;10182;52.896;6.496;2023-12-20T16:45:21;100766.63;;;6.53;100.00
20043;BME280;10182;52.896;6.496;2023-12-20T16:50:22;100753.47;;;6.53;100.00
20043;BME280;10182;52.896;6.496;2023-12-20T16:55:24;100750.78;;;6.54;100.00
20043;BME280;10182;52.896;6.496;2023-12-20T17:00:27;100744.63;;;6.55;100.00
20043;BME280;10182;52.896;6.496;2023-12-20T17:05:29;100737.34;;;6.64;100.00
20043;BME280;10182;52.896;6.496;2023-12-20T17:10:31;100722.41;;;6.64;100.00
20043;BME280;10182;52.896;6.496;2023-12-20T17:15:34;100708.28;;;6.67;100.00
20043;BME280;10182;52.896;6.496;2023-12-20T17:20:35;100700.44;;;6.65;100.00
20043;BME280;10182;52.896;6.496;2023-12-20T17:25:37;100700.34;;;6.68;100.00
20043;BME280;10182;52.896;6.496;2023-12-20T17:30:42;100673.91;;;6.73;100.00
20043;BME280;10182;52.896;6.496;2023-12-20T17:35:44;100657.88;;;6.79;100.00
20043;BME280;10182;52.896;6.496;2023-12-20T17:40:47;100653.34;;;6.84;100.00
20043;BME280;10182;52.896;6.496;2023-12-20T17:45:51;100641.84;;;6.87;100.00
20043;BME280;10182;52.896;6.496;2023-12-20T17:50:52;100632.03;;;6.92;100.00
20043;BME280;10182;52.896;6.496;2023-12-20T17:55:54;100625.81;;;6.94;100.00
20043;BME280;10182;52.896;6.496;2023-12-20T18:00:57;100616.06;;;6.97;100.00
20043;BME280;10182;52.896;6.496;2023-12-20T18:05:59;100611.56;;;7.00;100.00
20043;BME280;10182;52.896;6.496;2023-12-20T18:11:00;100598.41;;;7.00;100.00
20043;BME280;10182;52.896;6.496;2023-12-20T18:16:04;100591.16;;;7.07;100.00
20043;BME280;10182;52.896;6.496;2023-12-20T18:21:10;100578.72;;;7.10;100.00
20043;BME280;10182;52.896;6.496;2023-12-20T18:26:11;100571.53;;;7.16;100.00
20043;BME280;10182;52.896;6.496;2023-12-20T18:31:14;100562.72;;;7.17;100.00
20043;BME280;10182;52.896;6.496;2023-12-20T18:36:16;100564.38;;;7.19;100.00
20043;BME280;10182;52.896;6.496;2023-12-20T18:41:19;100563.41;;;7.22;100.00
20043;BME280;10182;52.896;6.496;2023-12-20T18:46:22;100551.94;;;7.23;100.00
20043;BME280;10182;52.896;6.496;2023-12-20T18:51:24;100542.16;;;7.26;100.00
20043;BME280;10182;52.896;6.496;2023-12-20T18:56:27;100536.78;;;7.29;100.00
20043;BME280;10182;52.896;6.496;2023-12-20T19:01:30;100539.16;;;7.37;100.00
20043;BME280;10182;52.896;6.496;2023-12-20T19:06:32;100524.13;;;7.39;100.00
20043;BME280;10182;52.896;6.496;2023-12-20T19:11:34;100526.59;;;7.44;100.00
20043;BME280;10182;52.896;6.496;2023-12-20T19:16:37;100515.94;;;7.47;100.00
20043;BME280;10182;52.896;6.496;2023-12-20T19:21:38;100500.97;;;7.48;100.00
20043;BME280;10182;52.896;6.496;2023-12-20T19:26:42;100499.91;;;7.53;100.00
20043;BME280;10182;52.896;6.496;2023-12-20T19:31:45;100486.75;;;7.52;100.00
20043;BME280;10182;52.896;6.496;2023-12-20T19:36:47;100493.53;;;7.59;100.00
20043;BME280;10182;52.896;6.496;2023-12-20T19:41:49;100483.78;;;7.61;100.00
20043;BME280;10182;52.896;6.496;2023-12-20T19:46:52;100485.31;;;7.67;100.00
20043;BME280;10182;52.896;6.496;2023-12-20T19:51:54;100486.19;;;7.67;100.00
20043;BME280;10182;52.896;6.496;2023-12-20T19:56:56;100466.63;;;7.73;100.00
20043;BME280;10182;52.896;6.496;2023-12-20T20:01:59;100464.69;;;7.78;100.00
20043;BME280;10182;52.896;6.496;2023-12-20T20:07:02;100453.94;;;7.83;100.00
20043;BME280;10182;52.896;6.496;2023-12-20T20:12:09;100466.16;;;7.85;100.00
20043;BME280;10182;52.896;6.496;2023-12-20T20:17:12;100451.09;;;7.89;100.00
20043;BME280;10182;52.896;6.496;2023-12-20T20:22:14;100454.63;;;7.88;100.00
20043;BME280;10182;52.896;6.496;2023-12-20T20:27:17;100459.78;;;7.91;100.00
20043;BME280;10182;52.896;6.496;2023-12-20T20:32:23;100434.28;;;7.91;100.00
20043;BME280;10182;52.896;6.496;2023-12-20T20:37:25;100449.22;;;7.91;100.00
20043;BME280;10182;52.896;6.496;2023-12-20T20:42:26;100439.28;;;7.97;100.00
20043;BME280;10182;52.896;6.496;2023-12-20T20:47:30;100436.59;;;7.99;100.00
20043;BME280;10182;52.896;6.496;2023-12-20T20:52:32;100436.41;;;8.04;100.00
20043;BME280;10182;52.896;6.496;2023-12-20T20:57:33;100419.63;;;8.05;100.00
20043;BME280;10182;52.896;6.496;2023-12-20T21:02:39;100400.19;;;8.07;100.00
20043;BME280;10182;52.896;6.496;2023-12-20T21:07:41;100391.56;;;8.04;100.00
20043;BME280;10182;52.896;6.496;2023-12-20T21:12:44;100403.72;;;8.08;100.00
20043;BME280;10182;52.896;6.496;2023-12-20T21:17:47;100389.63;;;8.07;100.00
20043;BME280;10182;52.896;6.496;2023-12-20T21:22:49;100401.06;;;8.08;100.00
20043;BME280;10182;52.896;6.496;2023-12-20T21:27:51;100406.22;;;8.11;100.00
20043;BME280;10182;52.896;6.496;2023-12-20T21:32:54;100399.94;;;8.13;100.00
20043;BME280;10182;52.896;6.496;2023-12-20T21:37:56;100420.91;;;8.17;100.00
20043;BME280;10182;52.896;6.496;2023-12-20T21:42:57;100423.50;;;8.18;100.00
20043;BME280;10182;52.896;6.496;2023-12-20T21:48:03;100414.47;;;8.24;100.00
20043;BME280;10182;52.896;6.496;2023-12-20T21:53:05;100424.03;;;8.26;100.00
20043;BME280;10182;52.896;6.496;2023-12-20T21:58:10;100423.13;;;8.27;100.00
20043;BME280;10182;52.896;6.496;2023-12-20T22:03:13;100427.41;;;8.30;100.00
20043;BME280;10182;52.896;6.496;2023-12-20T22:08:15;100420.34;;;8.30;100.00
20043;BME280;10182;52.896;6.496;2023-12-20T22:13:16;100398.31;;;8.32;100.00
20043;BME280;10182;52.896;6.496;2023-12-20T22:18:19;100384.13;;;8.34;100.00
20043;BME280;10182;52.896;6.496;2023-12-20T22:23:21;100391.97;;;8.36;100.00
20043;BME280;10182;52.896;6.496;2023-12-20T22:28:23;100381.28;;;8.39;100.00
20043;BME280;10182;52.896;6.496;2023-12-20T22:33:26;100371.72;;;8.36;100.00
20043;BME280;10182;52.896;6.496;2023-12-20T22:38:30;100361.03;;;8.39;100.00
20043;BME280;10182;52.896;6.496;2023-12-20T22:43:33;100353.91;;;8.41;100.00
20043;BME280;10182;52.896;6.496;2023-12-20T22:48:36;100357.38;;;8.42;100.00
20043;BME280;10182;52.896;6.496;2023-12-20T22:53:38;100346.06;;;8.40;100.00
20043;BME280;10182;52.896;6.496;2023-12-20T22:58:40;100340.84;;;8.38;100.00
20043;BME280;10182;52.896;6.496;2023-12-20T23:03:45;100335.50;;;8.40;100.00
20043;BME280;10182;52.896;6.496;2023-12-20T23:08:46;100326.66;;;8.41;100.00
20043;BME280;10182;52.896;6.496;2023-12-20T23:13:48;100318.75;;;8.41;100.00
20043;BME280;10182;52.896;6.496;2023-12-20T23:18:51;100316.88;;;8.43;100.00
20043;BME280;10182;52.896;6.496;2023-12-20T23:23:53;100298.47;;;8.41;100.00
20043;BME280;10182;52.896;6.496;2023-12-20T23:28:54;100297.47;;;8.44;100.00
20043;BME280;10182;52.896;6.496;2023-12-20T23:33:57;100309.72;;;8.46;100.00
20043;BME280;10182;52.896;6.496;2023-12-20T23:38:59;100311.44;;;8.48;100.00
20043;BME280;10182;52.896;6.496;2023-12-20T23:44:01;100307.84;;;8.49;100.00
20043;BME280;10182;52.896;6.496;2023-12-20T23:49:04;100305.13;;;8.50;100.00
20043;BME280;10182;52.896;6.496;2023-12-20T23:54:06;100288.38;;;8.51;100.00
20043;BME280;10182;52.896;6.496;2023-12-20T23:59:07;100277.75;;;8.53;100.00
